Time;durP1;ratioP1;P1;durP2;ratioP2;P2;SDS_P1;SDS_P2;PMS_P1;PMS_P2;Temp;Humidity;BMP_temperature;BMP_pressure;BME280_temperature;BME280_humidity;BME280_pressure;Samples;Min_cycle;Max_cycle;Signal;HPM_P1;HPM_P2
2022/01/10 00:02:24;;;;;;;2.10;2.00;;;;;;;1.32;100.00;101103.84;6222736;23;20004;-67
2022/01/10 00:04:50;;;;;;;2.50;2.40;;;;;;;1.38;100.00;101102.09;6249997;23;20072;-66
2022/01/10 00:07:15;;;;;;;2.58;2.35;;;;;;;1.33;100.00;101106.44;6250789;23;20000;-66
2022/01/10 00:09:41;;;;;;;2.70;2.50;;;;;;;1.32;100.00;101111.69;6249933;23;20491;-66
2022/01/10 00:12:07;;;;;;;2.53;2.42;;;;;;;1.27;100.00;101123.88;6249130;23;20086;-66
2022/01/10 00:14:32;;;;;;;2.17;2.08;;;;;;;1.22;100.00;101125.63;6249265;23;20012;-66
2022/01/10 00:16:57;;;;;;;2.13;2.03;;;;;;;1.12;100.00;101134.38;6249594;23;20079;-67
2022/01/10 00:19:23;;;;;;;2.65;2.50;;;;;;;1.03;100.00;101136.97;6249134;23;20004;-66
2022/01/10 00:21:49;;;;;;;2.10;2.00;;;;;;;1.28;100.00;101138.69;6249568;23;20004;-66
2022/01/10 00:24:14;;;;;;;2.90;2.70;;;;;;;1.42;100.00;101145.69;6248983;23;20122;-66
2022/01/10 00:26:40;;;;;;;2.20;2.10;;;;;;;1.31;100.00;101143.94;6222113;23;20426;-67
2022/01/10 00:29:05;;;;;;;2.30;2.20;;;;;;;1.26;100.00;101140.47;6249223;23;20062;-66
2022/01/10 00:31:30;;;;;;;2.50;2.40;;;;;;;1.18;100.00;101139.59;6222663;23;20007;-65
2022/01/10 00:33:56;;;;;;;2.80;2.60;;;;;;;1.22;100.00;101136.09;6249258;23;20000;-67
2022/01/10 00:36:21;;;;;;;2.30;2.20;;;;;;;1.20;100.00;101136.09;6249210;23;20007;-66
2022/01/10 00:38:47;;;;;;;2.50;2.40;;;;;;;1.20;100.00;101143.06;6222324;23;20004;-66
2022/01/10 00:41:12;;;;;;;2.20;2.10;;;;;;;1.12;100.00;101139.59;6249520;23;20024;-66
2022/01/10 00:43:45;;;;;;;2.30;2.20;;;;;;;1.08;100.00;101132.59;6249495;23;20004;-66
2022/01/10 00:46:10;;;;;;;3.28;3.03;;;;;;;1.12;100.00;101143.06;6249666;23;20012;-66
2022/01/10 00:48:35;;;;;;;2.10;2.00;;;;;;;1.18;100.00;101157.91;6249478;23;20034;-66
2022/01/10 00:51:01;;;;;;;2.13;2.03;;;;;;;1.22;100.00;101170.97;6248983;23;20008;-67
2022/01/10 00:53:26;;;;;;;2.60;2.50;;;;;;;1.19;100.00;101175.34;6248267;23;20036;-66
2022/01/10 00:55:52;;;;;;;2.47;2.38;;;;;;;1.24;100.00;101174.47;6248481;23;20137;-66
2022/01/10 00:58:17;;;;;;;2.20;2.10;;;;;;;1.24;100.00;101173.59;6249735;23;20010;-66
2022/01/10 01:00:43;;;;;;;2.40;2.30;;;;;;;1.17;100.00;101182.31;6248663;23;20006;-66
2022/01/10 01:03:08;;;;;;;2.42;2.33;;;;;;;1.17;100.00;101184.91;6249474;23;20062;-66
2022/01/10 01:05:38;;;;;;;2.35;2.25;;;;;;;1.16;100.00;101186.69;6249201;23;20004;-67
2022/01/10 01:08:06;;;;;;;3.38;3.08;;;;;;;1.19;100.00;101191.91;6222463;23;20027;-67
2022/01/10 01:13:11;;;;;;;2.75;2.55;;;;;;;1.29;100.00;101198.03;6259890;23;20015;-66
2022/01/10 01:15:56;;;;;;;2.35;2.25;;;;;;;1.33;100.00;101195.41;6249246;23;20082;-66
2022/01/10 01:18:57;;;;;;;2.65;2.45;;;;;;;1.35;100.00;101205.88;6222001;23;20015;-67
2022/01/10 01:24:04;;;;;;;2.38;2.28;;;;;;;1.62;100.00;101215.47;6248808;23;20022;-66
2022/01/10 01:26:40;;;;;;;2.55;2.45;;;;;;;1.69;100.00;101209.34;6249077;23;20024;-66
2022/01/10 01:29:07;;;;;;;3.05;2.85;;;;;;;1.79;100.00;101214.56;6248920;23;20008;-67
2022/01/10 01:31:33;;;;;;;2.53;2.42;;;;;;;1.76;100.00;101219.81;6248705;23;20007;-67
2022/01/10 01:33:58;;;;;;;2.65;2.53;;;;;;;1.80;100.00;101229.41;6221881;23;20008;-67
2022/01/10 01:36:25;;;;;;;2.53;2.42;;;;;;;1.77;100.00;101234.63;6222464;23;20425;-67
2022/01/10 01:38:53;;;;;;;2.58;2.40;;;;;;;1.85;100.00;101229.38;6248922;23;20008;-66
2022/01/10 01:43:46;;;;;;;3.13;2.92;;;;;;;1.74;100.00;101249.47;6249725;23;20086;-67
2022/01/10 01:46:12;;;;;;;2.75;2.65;;;;;;;1.70;100.00;101245.13;6249200;23;20435;-66
2022/01/10 01:48:37;;;;;;;3.13;2.92;;;;;;;1.81;100.00;101246.88;6248930;23;20298;-67
2022/01/10 01:51:03;;;;;;;2.53;2.42;;;;;;;1.79;100.00;101261.72;6221678;23;20007;-67
2022/01/10 01:53:30;;;;;;;2.83;2.72;;;;;;;1.70;100.00;101245.13;6248567;23;20008;-66
2022/01/10 01:55:57;;;;;;;2.75;2.60;;;;;;;1.67;100.00;101255.59;6221381;23;20448;-66
2022/01/10 01:58:22;;;;;;;2.47;2.38;;;;;;;1.68;100.00;101262.56;6221884;23;20456;-66
2022/01/10 02:00:48;;;;;;;2.55;2.35;;;;;;;1.67;100.00;101263.47;6248951;23;20079;-66
2022/01/10 02:03:13;;;;;;;2.72;2.63;;;;;;;1.65;100.00;101270.44;6221481;23;20337;-67
2022/01/10 02:05:39;;;;;;;2.83;2.63;;;;;;;1.55;100.00;101280.91;6248388;23;20459;-66
2022/01/10 02:08:04;;;;;;;2.75;2.60;;;;;;;1.50;100.00;101281.75;6247949;23;20004;-67
2022/01/10 02:10:29;;;;;;;4.28;3.97;;;;;;;1.50;100.00;101287.00;6221201;23;20000;-67
2022/01/10 02:12:54;;;;;;;2.67;2.58;;;;;;;1.62;100.00;101299.22;6247970;23;20003;-66
2022/01/10 02:15:34;;;;;;;2.63;2.53;;;;;;;1.70;100.00;101302.72;6248521;23;20279;-67
2022/01/10 02:18:00;;;;;;;2.80;2.70;;;;;;;1.69;100.00;101303.63;6248563;23;20473;-67
2022/01/10 02:20:29;;;;;;;2.83;2.63;;;;;;;1.68;100.00;101314.94;6221201;23;20024;-66
2022/01/10 02:22:54;;;;;;;2.58;2.47;;;;;;;1.65;100.00;101307.06;6248096;23;20071;-66
2022/01/10 02:25:20;;;;;;;2.50;2.40;;;;;;;1.64;100.00;101300.97;6247788;23;20007;-66
2022/01/10 02:27:45;;;;;;;2.65;2.55;;;;;;;1.59;100.00;101321.06;6221007;23;20050;-66
2022/01/10 02:30:11;;;;;;;3.17;2.97;;;;;;;1.61;100.00;101321.91;6248265;23;20008;-66
2022/01/10 02:32:37;;;;;;;2.55;2.45;;;;;;;1.57;100.00;101328.03;6248005;23;20425;-66
2022/01/10 02:35:02;;;;;;;2.88;2.67;;;;;;;1.54;100.00;101328.03;6221270;23;20091;-66
2022/01/10 02:37:35;;;;;;;2.85;2.67;;;;;;;1.61;100.00;101342.00;6215643;23;20063;-66
2022/01/10 02:40:06;;;;;;;4.07;3.88;;;;;;;1.52;100.00;101350.69;6218502;23;20403;-67
2022/01/10 02:42:32;;;;;;;3.00;2.80;;;;;;;1.53;100.00;101344.56;6216916;23;20005;-66
2022/01/10 02:44:57;;;;;;;2.95;2.75;;;;;;;1.54;100.00;101362.91;6218254;23;20050;-67
2022/01/10 02:47:23;;;;;;;2.47;2.38;;;;;;;1.73;100.00;101350.72;6217601;23;20080;-67
2022/01/10 02:49:48;;;;;;;2.10;2.00;;;;;;;1.69;100.00;101355.97;6217513;23;20004;-66
2022/01/10 02:52:14;;;;;;;2.78;2.65;;;;;;;1.71;100.00;101356.81;6217852;23;20001;-66
2022/01/10 02:54:42;;;;;;;2.50;2.40;;;;;;;1.70;100.00;101365.56;6217778;23;20005;-66
2022/01/10 02:57:07;;;;;;;2.88;2.72;;;;;;;1.69;100.00;101353.34;6216056;23;20005;-67
2022/01/10 02:59:32;;;;;;;3.00;2.80;;;;;;;1.73;100.00;101361.22;6217313;23;20079;-67
2022/01/10 03:01:58;;;;;;;2.50;2.40;;;;;;;1.75;100.00;101366.44;6217714;23;20311;-67
2022/01/10 03:04:27;;;;;;;2.95;2.75;;;;;;;1.90;100.00;101364.72;6215356;23;20012;-66
2022/01/10 03:06:52;;;;;;;2.63;2.53;;;;;;;1.88;100.00;101369.06;6217556;23;20059;-66
2022/01/10 03:09:18;;;;;;;3.08;2.88;;;;;;;1.90;100.00;101383.03;6216952;23;20012;-67
2022/01/10 03:11:44;;;;;;;2.38;2.28;;;;;;;1.94;100.00;101379.53;6216318;23;20088;-67
2022/01/10 03:14:12;;;;;;;2.55;2.45;;;;;;;1.99;100.00;101382.16;6217044;23;20000;-66
2022/01/10 03:16:37;;;;;;;3.17;2.97;;;;;;;2.08;100.00;101380.41;6217078;23;20068;-66
2022/01/10 03:19:08;;;;;;;3.35;3.15;;;;;;;2.05;100.00;101387.44;6216899;23;20334;-66
2022/01/10 03:21:35;;;;;;;2.65;2.47;;;;;;;2.13;100.00;101397.03;6217040;23;20007;-67
2022/01/10 03:24:01;;;;;;;2.60;2.50;;;;;;;2.23;100.00;101406.63;6217926;23;20066;-66
2022/01/10 03:26:27;;;;;;;3.00;2.80;;;;;;;2.16;100.00;101412.75;6216285;23;20039;-67
2022/01/10 03:28:53;;;;;;;4.28;3.97;;;;;;;2.13;100.00;101412.75;6215424;23;20001;-67
2022/01/10 03:31:19;;;;;;;3.75;3.53;;;;;;;2.09;100.00;101421.47;6216867;23;20011;-67
2022/01/10 03:33:44;;;;;;;2.10;2.00;;;;;;;2.12;100.00;101436.31;6215464;23;20001;-67
2022/01/10 03:36:10;;;;;;;2.55;2.45;;;;;;;2.18;100.00;101426.72;6217914;23;20054;-66
2022/01/10 03:38:35;;;;;;;2.95;2.75;;;;;;;2.17;100.00;101435.47;6246782;23;20083;-67
2022/01/10 03:41:01;;;;;;;2.67;2.55;;;;;;;2.13;100.00;101438.94;6246998;23;20000;-66
2022/01/10 03:43:26;;;;;;;2.70;2.55;;;;;;;2.20;100.00;101445.06;6247452;23;20441;-66
2022/01/10 03:45:52;;;;;;;3.13;2.92;;;;;;;2.14;100.00;101452.91;6247371;23;20422;-67
2022/01/10 03:48:17;;;;;;;3.28;3.08;;;;;;;2.13;100.00;101454.66;6220773;23;20444;-67
2022/01/10 03:50:43;;;;;;;3.22;3.00;;;;;;;2.14;100.00;101460.78;6220670;23;20008;-66
2022/01/10 03:53:08;;;;;;;2.53;2.42;;;;;;;2.14;100.00;101464.28;6246898;23;20000;-66
2022/01/10 03:55:33;;;;;;;3.17;2.97;;;;;;;2.17;100.00;101472.16;6247104;23;20066;-67
2022/01/10 03:57:59;;;;;;;2.38;2.28;;;;;;;2.20;100.00;101471.25;6220441;23;20008;-67
2022/01/10 04:00:24;;;;;;;2.80;2.60;;;;;;;2.46;100.00;101474.78;6247040;23;20027;-67
2022/01/10 04:02:58;;;;;;;2.45;2.35;;;;;;;2.37;100.00;101459.94;6247047;23;20010;-66
2022/01/10 04:05:23;;;;;;;2.85;2.72;;;;;;;2.24;100.00;101468.66;6220921;23;20016;-67
2022/01/10 04:07:49;;;;;;;2.17;2.08;;;;;;;2.28;100.00;101459.94;6246860;23;20334;-67
2022/01/10 04:10:14;;;;;;;2.20;2.10;;;;;;;2.25;100.00;101464.28;6247276;23;20425;-67
2022/01/10 04:12:40;;;;;;;2.10;2.00;;;;;;;2.25;100.00;101470.41;6220100;23;20000;-67
2022/01/10 04:15:08;;;;;;;1.95;1.85;;;;;;;2.25;100.00;101480.91;6219854;23;20460;-67
2022/01/10 04:17:33;;;;;;;2.67;2.53;;;;;;;2.30;100.00;101476.50;6220570;23;20031;-67
2022/01/10 04:19:59;;;;;;;3.13;2.92;;;;;;;2.37;100.00;101486.13;6247362;23;20061;-66
2022/01/10 04:22:24;;;;;;;1.98;1.88;;;;;;;2.36;100.00;101484.41;6247467;23;20011;-67
2022/01/10 04:24:49;;;;;;;2.72;2.63;;;;;;;2.37;100.00;101499.25;6247571;23;20406;-66
2022/01/10 04:27:14;;;;;;;2.38;2.28;;;;;;;2.39;100.00;101507.09;6247039;23;20008;-66
2022/01/10 04:29:40;;;;;;;1.80;1.70;;;;;;;2.39;100.00;101507.09;6249099;23;20058;-67
2022/01/10 04:32:07;;;;;;;2.72;2.53;;;;;;;2.43;100.00;101521.94;6248746;23;20011;-66
2022/01/10 04:34:32;;;;;;;2.42;2.33;;;;;;;2.41;100.00;101518.47;6250235;23;20008;-66
2022/01/10 04:36:57;;;;;;;2.00;1.90;;;;;;;2.46;100.00;101521.97;6249207;23;20083;-67
2022/01/10 04:39:23;;;;;;;2.40;2.30;;;;;;;2.45;100.00;101530.69;6248749;23;20004;-66
2022/01/10 04:41:48;;;;;;;1.92;1.83;;;;;;;2.46;100.00;101535.94;6249667;23;20000;-67
2022/01/10 04:44:14;;;;;;;2.25;2.15;;;;;;;2.51;100.00;101543.81;6249107;23;20437;-66
2022/01/10 04:46:39;;;;;;;2.22;2.10;;;;;;;2.55;100.00;101550.81;6249550;23;20746;-67
2022/01/10 04:49:08;;;;;;;3.58;2.17;;;;;;;2.57;100.00;101549.94;6248608;23;20004;-67
2022/01/10 04:51:33;;;;;;;2.22;2.13;;;;;;;2.58;100.00;101558.69;6249304;23;19996;-67
2022/01/10 04:53:59;;;;;;;3.63;3.22;;;;;;;2.64;100.00;101567.44;6248853;23;20016;-67
2022/01/10 04:56:25;;;;;;;2.78;2.60;;;;;;;2.66;100.00;101568.28;6248836;23;20000;-67
2022/01/10 04:58:51;;;;;;;2.78;2.67;;;;;;;2.70;100.00;101570.06;6248694;23;20084;-67
2022/01/10 05:01:17;;;;;;;2.15;2.05;;;;;;;2.71;100.00;101581.44;6249379;23;20316;-67
2022/01/10 05:03:43;;;;;;;2.53;2.42;;;;;;;2.73;100.00;101585.78;6248856;23;20016;-66
2022/01/10 05:06:08;;;;;;;3.17;2.72;;;;;;;2.79;100.00;101583.16;6248716;23;20008;-66
2022/01/10 05:08:34;;;;;;;3.67;3.47;;;;;;;2.78;100.00;101594.56;6248397;23;20340;-67
2022/01/10 05:10:59;;;;;;;2.42;2.33;;;;;;;2.75;100.00;101594.56;6249272;23;20328;-66
2022/01/10 05:13:25;;;;;;;2.60;2.47;;;;;;;2.80;100.00;101600.69;6247998;23;20004;-66
2022/01/10 05:15:51;;;;;;;3.00;2.80;;;;;;;2.86;100.00;101598.06;6248785;23;20004;-67
2022/01/10 05:18:19;;;;;;;2.80;2.70;;;;;;;2.81;100.00;101601.53;6248517;23;20484;-67
2022/01/10 05:20:44;;;;;;;2.92;2.72;;;;;;;2.81;100.00;101601.53;6221588;23;20000;-66
2022/01/10 05:23:10;;;;;;;2.45;2.35;;;;;;;2.81;100.00;101605.03;6248811;23;20012;-67
2022/01/10 05:25:39;;;;;;;3.40;3.08;;;;;;;2.86;100.00;101612.91;6221378;23;20007;-66
2022/01/10 05:28:12;;;;;;;3.67;3.38;;;;;;;2.82;100.00;101625.16;6249633;23;20035;-67
2022/01/10 05:30:40;;;;;;;2.30;2.20;;;;;;;2.95;100.00;101628.66;6248458;23;20104;-67
2022/01/10 05:33:07;;;;;;;3.08;2.88;;;;;;;2.92;100.00;101626.03;6248132;23;20007;-67
2022/01/10 05:35:34;;;;;;;3.05;2.85;;;;;;;2.85;100.00;101627.75;6248941;23;20011;-67
2022/01/10 05:37:59;;;;;;;2.85;2.65;;;;;;;2.89;100.00;101632.16;6247722;23;20071;-67
2022/01/10 05:40:24;;;;;;;2.60;2.47;;;;;;;2.81;100.00;101640.88;6248318;23;20080;-66
2022/01/10 05:42:50;;;;;;;3.13;2.92;;;;;;;2.74;100.00;101642.63;6221382;23;20004;-67
2022/01/10 05:45:15;;;;;;;2.75;2.65;;;;;;;2.70;100.00;101651.38;6221410;23;20418;-66
2022/01/10 05:47:43;;;;;;;3.33;3.13;;;;;;;2.70;100.00;101651.38;6248288;23;20380;-66
2022/01/10 05:50:11;;;;;;;2.03;1.92;;;;;;;2.71;100.00;101641.75;6222143;23;20039;-67
2022/01/10 05:52:37;;;;;;;2.45;2.35;;;;;;;2.64;100.00;101656.59;6247973;23;20386;-71
2022/01/10 05:55:04;;;;;;;3.70;3.35;;;;;;;2.58;100.00;101648.72;6247931;23;20428;-67
2022/01/10 05:57:29;;;;;;;2.40;2.30;;;;;;;2.58;100.00;101659.22;6247547;23;20015;-67
2022/01/10 05:59:54;;;;;;;2.42;2.33;;;;;;;2.54;100.00;101665.31;6247094;23;20004;-68
2022/01/10 06:02:20;;;;;;;2.65;2.53;;;;;;;2.55;100.00;101668.81;6246745;23;20154;-67
2022/01/10 06:04:45;;;;;;;3.63;3.42;;;;;;;2.51;100.00;101681.03;6219107;23;20314;-68
2022/01/10 06:07:12;;;;;;;2.63;2.53;;;;;;;2.48;100.00;101682.75;6244920;23;20333;-67
2022/01/10 06:09:37;;;;;;;2.47;2.38;;;;;;;2.47;100.00;101688.88;6246176;23;20018;-67
2022/01/10 06:12:03;;;;;;;4.38;3.95;;;;;;;2.48;100.00;101693.25;6246401;23;20402;-68
2022/01/10 06:14:28;;;;;;;2.95;2.78;;;;;;;2.56;100.00;101689.78;6218535;23;20005;-66
2022/01/10 06:16:54;;;;;;;2.83;2.65;;;;;;;2.51;100.00;101685.38;6219317;23;20004;-67
2022/01/10 06:19:19;;;;;;;2.15;2.05;;;;;;;2.54;100.00;101702.00;6246424;23;20003;-66
2022/01/10 06:21:44;;;;;;;3.05;2.85;;;;;;;2.54;100.00;101709.00;6246373;23;20008;-66
2022/01/10 06:24:10;;;;;;;2.30;2.20;;;;;;;2.68;100.00;101715.16;6246588;23;20008;-67
2022/01/10 06:26:35;;;;;;;2.75;2.60;;;;;;;2.58;100.00;101711.66;6246324;23;20432;-66
2022/01/10 06:29:00;;;;;;;2.60;2.50;;;;;;;2.58;100.00;101716.91;6246565;23;20377;-66
2022/01/10 06:31:26;;;;;;;2.75;2.53;;;;;;;2.50;100.00;101729.09;6246707;23;20000;-66
2022/01/10 06:33:51;;;;;;;2.75;2.58;;;;;;;2.47;100.00;101731.72;6246533;23;20049;-66
2022/01/10 06:36:16;;;;;;;4.38;4.07;;;;;;;2.48;100.00;101732.56;6246465;23;20039;-67
2022/01/10 06:38:42;;;;;;;2.65;2.55;;;;;;;2.49;100.00;101736.97;6246582;23;20050;-66
2022/01/10 06:41:07;;;;;;;2.35;2.25;;;;;;;2.53;100.00;101741.34;6246063;23;20004;-66
2022/01/10 06:43:33;;;;;;;2.38;2.28;;;;;;;2.59;100.00;101744.88;6219293;23;20329;-66
2022/01/10 06:45:58;;;;;;;3.20;3.00;;;;;;;2.57;100.00;101753.59;6218670;23;20004;-66
2022/01/10 06:48:23;;;;;;;3.17;2.97;;;;;;;2.57;100.00;101756.22;6245728;23;20069;-66
2022/01/10 06:50:49;;;;;;;3.60;3.40;;;;;;;2.60;100.00;101756.25;6245228;23;20000;-66
2022/01/10 06:53:16;;;;;;;3.58;3.38;;;;;;;2.64;100.00;101765.84;6245593;23;20007;-66
2022/01/10 06:55:41;;;;;;;3.47;3.28;;;;;;;2.58;100.00;101766.72;6246555;23;20026;-67
2022/01/10 06:58:06;;;;;;;2.95;2.78;;;;;;;2.79;100.00;101774.66;6246171;23;20093;-68
2022/01/10 07:00:32;;;;;;;3.33;2.60;;;;;;;2.89;100.00;101786.06;6218746;23;20018;-65
2022/01/10 07:02:57;;;;;;;2.50;2.40;;;;;;;2.94;100.00;101787.84;6245030;23;20722;-66
2022/01/10 07:05:23;;;;;;;2.95;2.75;;;;;;;2.89;100.00;101793.94;6218099;23;20011;-67
2022/01/10 07:07:48;;;;;;;2.65;2.55;;;;;;;2.92;100.00;101791.31;6245015;23;20023;-66
2022/01/10 07:10:13;;;;;;;3.10;2.90;;;;;;;2.73;100.00;101795.63;6244710;23;20011;-68
2022/01/10 07:12:39;;;;;;;2.72;2.53;;;;;;;2.72;100.00;101799.13;6217764;23;20356;-66
2022/01/10 07:15:05;;;;;;;2.80;2.70;;;;;;;2.76;100.00;101807.84;6248111;23;20050;-67
2022/01/10 07:17:30;;;;;;;2.97;2.78;;;;;;;2.68;100.00;101815.69;6221296;23;20004;-66
2022/01/10 07:19:55;;;;;;;2.35;2.25;;;;;;;2.65;100.00;101817.41;6248032;23;20337;-68
2022/01/10 07:22:21;;;;;;;2.40;2.30;;;;;;;2.63;100.00;101835.78;6247669;23;20015;-66
2022/01/10 07:24:46;;;;;;;2.70;2.60;;;;;;;2.64;100.00;101841.91;6248201;23;20008;-67
2022/01/10 07:27:12;;;;;;;2.88;2.75;;;;;;;2.69;100.00;101840.19;6220551;23;20287;-68
2022/01/10 07:29:37;;;;;;;3.67;3.47;;;;;;;2.67;100.00;101853.31;6247853;23;20440;-66
2022/01/10 07:32:05;;;;;;;3.08;2.90;;;;;;;2.67;100.00;101849.78;6248045;23;20441;-67
2022/01/10 07:34:30;;;;;;;2.72;2.63;;;;;;;2.74;100.00;101855.06;6221710;23;20019;-67
2022/01/10 07:36:55;;;;;;;2.67;2.58;;;;;;;2.81;100.00;101864.72;6247558;23;20013;-67
2022/01/10 07:39:21;;;;;;;3.13;2.80;;;;;;;2.89;100.00;101865.66;6247668;23;20000;-67
2022/01/10 07:41:46;;;;;;;2.80;2.67;;;;;;;2.84;100.00;101869.09;6247896;23;20027;-68
2022/01/10 07:44:11;;;;;;;3.45;3.25;;;;;;;2.82;100.00;101871.72;6247946;23;20004;-66
2022/01/10 07:46:37;;;;;;;2.42;2.33;;;;;;;2.83;100.00;101880.47;6248503;23;20035;-67
2022/01/10 07:49:02;;;;;;;2.65;2.55;;;;;;;2.80;100.00;101885.72;6220374;23;20425;-66
2022/01/10 07:51:28;;;;;;;2.85;2.70;;;;;;;2.86;100.00;101881.38;6246762;23;20103;-66
2022/01/10 07:53:53;;;;;;;2.83;2.63;;;;;;;2.90;100.00;101898.00;6247099;23;20039;-65
2022/01/10 07:56:19;;;;;;;2.20;2.10;;;;;;;2.87;100.00;101898.88;6220747;23;20456;-69
2022/01/10 07:58:48;;;;;;;2.35;2.25;;;;;;;2.86;100.00;101896.22;6245754;23;20483;-67
2022/01/10 08:01:13;;;;;;;2.97;2.78;;;;;;;2.93;100.00;101901.50;6221605;23;20039;-68
2022/01/10 08:03:39;;;;;;;4.25;3.95;;;;;;;2.90;100.00;101898.88;6247188;23;20437;-65
2022/01/10 08:06:04;;;;;;;2.92;2.75;;;;;;;2.97;100.00;101910.28;6249187;23;20038;-66
2022/01/10 08:08:29;;;;;;;2.92;2.75;;;;;;;2.98;100.00;101910.28;6248210;23;20306;-66
2022/01/10 08:10:54;;;;;;;2.83;2.67;;;;;;;3.04;100.00;101912.09;6249226;23;20326;-66
2022/01/10 08:13:20;;;;;;;2.80;2.67;;;;;;;2.97;100.00;101908.56;6247376;23;20000;-66
2022/01/10 08:15:45;;;;;;;2.58;2.45;;;;;;;3.07;100.00;101912.09;6222580;23;20001;-66
2022/01/10 08:18:11;;;;;;;2.10;2.00;;;;;;;3.12;100.00;101910.34;6249415;23;20012;-66
2022/01/10 08:20:36;;;;;;;2.65;2.45;;;;;;;3.08;100.00;101913.84;6249599;23;20014;-66
2022/01/10 08:23:02;;;;;;;2.67;2.47;;;;;;;2.98;100.00;101928.66;6222429;23;20008;-67
2022/01/10 08:25:27;;;;;;;3.15;2.95;;;;;;;2.97;100.00;101929.53;6249338;23;20341;-66
2022/01/10 08:27:53;;;;;;;2.67;2.47;;;;;;;2.93;100.00;101938.25;6249572;23;20005;-67
2022/01/10 08:30:18;;;;;;;2.85;2.70;;;;;;;3.06;100.00;101937.47;6249318;23;20019;-66
2022/01/10 08:32:46;;;;;;;2.60;2.50;;;;;;;2.95;100.00;101944.38;6222116;23;20394;-65
2022/01/10 08:35:12;;;;;;;2.83;2.65;;;;;;;3.00;100.00;101953.19;6248809;23;20433;-67
2022/01/10 08:37:37;;;;;;;2.50;2.40;;;;;;;3.05;100.00;101956.72;6250501;23;20022;-68
2022/01/10 08:40:03;;;;;;;2.50;2.40;;;;;;;3.09;100.00;101953.22;6246358;23;20004;-67
2022/01/10 08:42:28;;;;;;;2.22;2.10;;;;;;;3.13;100.00;101951.50;6248312;23;20067;-66
2022/01/10 08:44:54;;;;;;;2.40;2.30;;;;;;;3.11;100.00;101954.09;6248919;23;20487;-67
2022/01/10 08:47:21;;;;;;;3.22;3.03;;;;;;;3.12;100.00;101961.09;6245965;23;20425;-66
2022/01/10 08:49:46;;;;;;;2.80;2.70;;;;;;;3.23;100.00;101955.03;6221496;23;20064;-66
2022/01/10 08:52:12;;;;;;;2.35;2.25;;;;;;;3.25;100.00;101969.06;6249668;23;20042;-66
2022/01/10 08:54:37;;;;;;;2.30;2.20;;;;;;;3.35;100.00;101963.84;6248366;23;20008;-67
2022/01/10 08:57:04;;;;;;;2.50;2.40;;;;;;;3.49;100.00;101959.53;6222060;23;20011;-67
2022/01/10 08:59:30;;;;;;;2.00;1.90;;;;;;;3.56;100.00;101966.53;6249272;23;20000;-67
2022/01/10 09:01:56;;;;;;;3.17;2.97;;;;;;;3.51;100.00;101968.31;6221521;23;20027;-66
2022/01/10 09:04:22;;;;;;;2.20;2.10;;;;;;;3.62;100.00;101971.84;6248819;23;20007;-66
2022/01/10 09:06:49;;;;;;;2.53;2.42;;;;;;;3.57;100.00;101983.19;6249467;23;20416;-67
2022/01/10 09:09:15;;;;;;;2.88;2.67;;;;;;;3.64;100.00;101979.72;6250457;23;20004;-67
2022/01/10 09:11:41;;;;;;;2.10;2.00;;;;;;;3.58;100.00;101982.34;6224109;23;20338;-67
2022/01/10 09:14:07;;;;;;;2.88;2.70;;;;;;;3.60;100.00;101985.81;6224249;23;20005;-67
2022/01/10 09:16:32;;;;;;;2.35;2.25;;;;;;;3.63;100.00;101988.47;6251552;23;20105;-67
2022/01/10 09:18:58;;;;;;;2.95;2.75;;;;;;;3.70;100.00;101991.13;6252542;23;20011;-67
2022/01/10 09:21:24;;;;;;;2.85;2.60;;;;;;;3.76;100.00;101988.53;6252589;23;20421;-66
2022/01/10 09:23:49;;;;;;;3.28;3.08;;;;;;;3.91;100.00;101992.91;6252921;23;20011;-66
2022/01/10 09:26:14;;;;;;;4.07;2.95;;;;;;;3.92;100.00;101992.06;6252393;23;20015;-67
2022/01/10 09:28:40;;;;;;;3.25;2.97;;;;;;;3.88;100.00;101998.19;6252775;23;20004;-67
2022/01/10 09:31:05;;;;;;;2.00;1.90;;;;;;;3.95;100.00;102002.59;6253074;23;20080;-67
2022/01/10 09:33:31;;;;;;;3.28;3.08;;;;;;;4.04;100.00;102002.59;6252471;23;20000;-66
2022/01/10 09:35:56;;;;;;;2.92;2.72;;;;;;;4.16;100.00;102007.91;6253051;23;20042;-67
2022/01/10 09:38:22;;;;;;;2.63;2.47;;;;;;;4.24;100.00;102016.66;6252040;23;20078;-68
2022/01/10 09:40:48;;;;;;;3.33;3.13;;;;;;;4.27;100.00;102021.94;6251566;23;20004;-67
2022/01/10 09:43:13;;;;;;;2.85;2.65;;;;;;;4.30;100.00;102025.44;6250652;23;20376;-68
2022/01/10 09:45:39;;;;;;;2.58;2.38;;;;;;;4.18;100.00;102028.06;6246824;23;20004;-71
2022/01/10 09:48:05;;;;;;;2.35;2.15;;;;;;;4.20;100.00;102038.56;6249562;23;20000;-67
2022/01/10 09:50:30;;;;;;;9.88;3.47;;;;;;;4.31;100.00;102039.47;6249631;23;20040;-69
2022/01/10 09:52:56;;;;;;;2.35;2.25;;;;;;;4.48;100.00;102040.38;6249038;23;20007;-66
2022/01/10 09:55:21;;;;;;;7.30;2.83;;;;;;;4.45;100.00;102048.25;6250183;23;20035;-67
2022/01/10 09:57:46;;;;;;;2.10;2.00;;;;;;;4.52;100.00;102055.31;6222396;23;20015;-66
2022/01/10 10:00:12;;;;;;;3.08;2.88;;;;;;;4.63;100.00;102048.28;6250062;23;20079;-68
2022/01/10 10:02:41;;;;;;;2.90;2.63;;;;;;;4.74;100.00;102064.97;6248320;23;20007;-67
2022/01/10 10:05:09;;;;;;;2.80;2.60;;;;;;;4.80;100.00;102072.84;6222136;23;20013;-68
2022/01/10 10:07:39;;;;;;;3.72;2.97;;;;;;;4.72;100.00;102077.22;6221625;23;20008;-68
2022/01/10 10:10:08;;;;;;;;;;;;;;;4.85;100.00;102075.50;6248862;23;20007;-67
2022/01/10 10:12:34;;;;;;;2.50;2.35;;;;;;;4.81;100.00;102085.13;6248036;23;19938;-67
2022/01/10 10:15:01;;;;;;;3.55;3.35;;;;;;;4.77;100.00;102083.38;6248807;23;20008;-67
2022/01/10 10:17:30;;;;;;;2.17;2.03;;;;;;;4.86;100.00;102086.00;6249193;23;20007;-67
2022/01/10 10:19:56;;;;;;;2.80;2.67;;;;;;;5.01;100.00;102099.16;6249017;23;20153;-67
2022/01/10 10:22:23;;;;;;;4.22;3.28;;;;;;;5.10;100.00;102100.94;6248391;23;20008;-68
2022/01/10 10:24:49;;;;;;;3.05;2.85;;;;;;;5.14;100.00;102105.34;6248243;23;20444;-68
2022/01/10 10:27:20;;;;;;;6.05;4.50;;;;;;;5.11;100.00;102110.56;6248962;23;20008;-67
2022/01/10 10:29:47;;;;;;;3.17;2.97;;;;;;;5.20;100.00;102115.84;6248559;23;20050;-69
2022/01/10 10:32:15;;;;;;;4.00;3.60;;;;;;;5.24;100.00;102117.59;6248362;23;20014;-68
2022/01/10 10:34:41;;;;;;;3.05;2.67;;;;;;;5.22;100.00;102112.34;6248136;23;20065;-69
2022/01/10 10:37:13;;;;;;;3.10;2.90;;;;;;;5.08;100.00;102116.72;6247192;23;20008;-69
2022/01/10 10:39:43;;;;;;;3.50;3.30;;;;;;;5.54;100.00;102123.72;6248335;23;20038;-69
2022/01/10 10:42:11;;;;;;;5.28;4.18;;;;;;;5.35;100.00;102132.53;6221381;23;20070;-68
2022/01/10 10:44:36;;;;;;;3.20;3.00;;;;;;;5.37;100.00;102137.78;6249002;23;20054;-68
2022/01/10 10:47:03;;;;;;;3.78;2.55;;;;;;;5.35;100.00;102143.06;6248210;23;20012;-68
2022/01/10 10:49:35;;;;;;;3.10;2.90;;;;;;;5.23;100.00;102145.69;6221458;23;20065;-68
2022/01/10 10:52:03;;;;;;;5.20;3.10;;;;;;;5.12;100.00;102144.81;6247037;23;20004;-69
2022/01/10 10:54:32;;;;;;;2.85;2.58;;;;;;;5.32;100.00;102152.72;6248096;23;20070;-68
2022/01/10 10:56:59;;;;;;;2.72;2.45;;;;;;;5.37;100.00;102156.22;6220834;23;20012;-67
2022/01/10 10:59:29;;;;;;;3.40;3.10;;;;;;;5.41;100.00;102163.22;6220778;23;20058;-68
2022/01/10 11:01:55;;;;;;;3.15;2.95;;;;;;;5.24;100.00;102165.88;6246879;23;20030;-71
2022/01/10 11:04:21;;;;;;;2.90;2.70;;;;;;;5.48;100.00;102168.53;6248594;23;20051;-68
2022/01/10 11:06:47;;;;;;;2.85;2.65;;;;;;;5.59;100.00;102173.78;6248107;23;20062;-68
2022/01/10 11:09:13;;;;;;;3.83;3.53;;;;;;;5.55;100.00;102172.00;6247175;23;20004;-69
2022/01/10 11:11:42;;;;;;;3.05;2.85;;;;;;;5.64;100.00;102178.16;6218800;23;20004;-69
2022/01/10 11:14:11;;;;;;;3.57;3.27;;;;;;;5.41;100.00;102179.94;6220382;23;20341;-68
2022/01/10 11:16:39;;;;;;;3.30;2.78;;;;;;;5.46;100.00;102183.44;6218899;23;20433;-68
2022/01/10 11:19:12;;;;;;;4.72;3.85;;;;;;;5.75;100.00;102184.28;6248173;23;20004;-70
2022/01/10 11:21:40;;;;;;;5.43;2.45;;;;;;;5.61;100.00;102191.31;6220400;23;20349;-68
2022/01/10 11:24:05;;;;;;;4.25;3.05;;;;;;;5.43;100.00;102186.09;6221319;23;20083;-71
2022/01/10 11:26:39;;;;;;;3.20;2.78;;;;;;;5.81;100.00;102197.47;6247715;23;20000;-70
2022/01/10 11:29:07;;;;;;;4.35;3.58;;;;;;;5.68;100.00;102206.28;6248351;23;20000;-69